sensor_id;sensor_type;location;lat;lon;timestamp;pressure;altitude;pressure_sealevel;temperature;humidity
66547;BME280;53400;50.364;14.874;2023-03-21T00:02:24;98714.63;;;7.59;100.00
66547;BME280;53400;50.364;14.874;2023-03-21T00:04:50;98699.75;;;7.51;100.00
66547;BME280;53400;50.364;14.874;2023-03-21T00:07:16;98700.88;;;7.44;100.00
66547;BME280;53400;50.364;14.874;2023-03-21T00:09:42;98695.97;;;7.59;100.00
66547;BME280;53400;50.364;14.874;2023-03-21T00:12:08;98692.66;;;7.45;100.00
66547;BME280;53400;50.364;14.874;2023-03-21T00:14:35;98693.59;;;7.69;100.00
66547;BME280;53400;50.364;14.874;2023-03-21T00:17:03;98697.03;;;7.58;100.00
66547;BME280;53400;50.364;14.874;2023-03-21T00:19:30;98695.19;;;7.40;100.00
66547;BME280;53400;50.364;14.874;2023-03-21T00:21:57;98694.38;;;7.21;100.00
66547;BME280;53400;50.364;14.874;2023-03-21T00:24:22;98679.84;;;7.35;100.00
66547;BME280;53400;50.364;14.874;2023-03-21T00:26:49;98684.72;;;7.20;100.00
66547;BME280;53400;50.364;14.874;2023-03-21T00:29:15;98679.78;;;7.24;100.00
66547;BME280;53400;50.364;14.874;2023-03-21T00:31:42;98683.63;;;6.91;100.00
66547;BME280;53400;50.364;14.874;2023-03-21T00:34:07;98682.94;;;6.96;100.00
66547;BME280;53400;50.364;14.874;2023-03-21T00:36:35;98678.31;;;6.84;100.00
66547;BME280;53400;50.364;14.874;2023-03-21T00:39:01;98683.66;;;6.84;100.00
66547;BME280;53400;50.364;14.874;2023-03-21T00:41:28;98690.75;;;6.90;100.00
66547;BME280;53400;50.364;14.874;2023-03-21T00:43:53;98680.72;;;6.93;100.00
66547;BME280;53400;50.364;14.874;2023-03-21T00:46:20;98683.44;;;6.86;100.00
66547;BME280;53400;50.364;14.874;2023-03-21T00:48:46;98671.66;;;6.50;100.00
66547;BME280;53400;50.364;14.874;2023-03-21T00:51:13;98686.69;;;6.70;100.00
66547;BME280;53400;50.364;14.874;2023-03-21T00:53:44;98675.31;;;6.56;100.00
66547;BME280;53400;50.364;14.874;2023-03-21T00:56:10;98673.63;;;6.61;100.00
66547;BME280;53400;50.364;14.874;2023-03-21T00:58:36;98676.28;;;6.61;100.00
66547;BME280;53400;50.364;14.874;2023-03-21T01:01:02;98683.94;;;6.51;100.00
66547;BME280;53400;50.364;14.874;2023-03-21T01:03:28;98673.41;;;6.63;100.00
66547;BME280;53400;50.364;14.874;2023-03-21T01:05:54;98670.28;;;6.73;100.00
66547;BME280;53400;50.364;14.874;2023-03-21T01:08:31;98682.97;;;6.71;100.00
66547;BME280;53400;50.364;14.874;2023-03-21T01:11:02;98675.63;;;6.66;100.00
66547;BME280;53400;50.364;14.874;2023-03-21T01:13:28;98677.84;;;6.69;100.00
66547;BME280;53400;50.364;14.874;2023-03-21T01:15:55;98670.84;;;6.75;100.00
66547;BME280;53400;50.364;14.874;2023-03-21T01:18:23;98673.56;;;6.68;100.00
66547;BME280;53400;50.364;14.874;2023-03-21T01:20:53;98671.50;;;6.70;100.00
66547;BME280;53400;50.364;14.874;2023-03-21T01:23:19;98675.00;;;6.71;100.00
66547;BME280;53400;50.364;14.874;2023-03-21T01:25:46;98676.22;;;6.68;100.00
66547;BME280;53400;50.364;14.874;2023-03-21T01:28:14;98673.75;;;6.73;100.00
66547;BME280;53400;50.364;14.874;2023-03-21T01:30:44;98673.44;;;6.81;100.00
66547;BME280;53400;50.364;14.874;2023-03-21T01:33:10;98676.28;;;6.86;100.00
66547;BME280;53400;50.364;14.874;2023-03-21T01:35:36;98675.03;;;6.89;100.00
66547;BME280;53400;50.364;14.874;2023-03-21T01:38:01;98680.63;;;6.81;100.00
66547;BME280;53400;50.364;14.874;2023-03-21T01:40:29;98677.16;;;6.80;100.00
66547;BME280;53400;50.364;14.874;2023-03-21T01:42:55;98674.28;;;6.82;100.00
66547;BME280;53400;50.364;14.874;2023-03-21T01:48:41;98652.69;;;7.08;100.00
66547;BME280;53400;50.364;14.874;2023-03-21T01:51:08;98666.81;;;7.09;100.00
66547;BME280;53400;50.364;14.874;2023-03-21T01:53:36;98671.47;;;6.95;100.00
66547;BME280;53400;50.364;14.874;2023-03-21T01:56:07;98667.06;;;7.07;100.00
66547;BME280;53400;50.364;14.874;2023-03-21T01:58:37;98668.88;;;6.88;100.00
66547;BME280;53400;50.364;14.874;2023-03-21T02:01:04;98663.72;;;6.69;100.00
66547;BME280;53400;50.364;14.874;2023-03-21T02:03:31;98656.72;;;6.74;100.00
66547;BME280;53400;50.364;14.874;2023-03-21T02:06:09;98661.53;;;6.84;100.00
66547;BME280;53400;50.364;14.874;2023-03-21T02:08:38;98658.34;;;6.75;100.00
66547;BME280;53400;50.364;14.874;2023-03-21T02:11:05;98658.06;;;6.83;100.00
66547;BME280;53400;50.364;14.874;2023-03-21T02:13:31;98653.91;;;6.69;100.00
66547;BME280;53400;50.364;14.874;2023-03-21T02:16:00;98652.19;;;6.56;100.00
66547;BME280;53400;50.364;14.874;2023-03-21T02:18:33;98654.34;;;6.66;100.00
66547;BME280;53400;50.364;14.874;2023-03-21T02:27:12;98653.78;;;6.82;100.00
66547;BME280;53400;50.364;14.874;2023-03-21T02:30:07;98668.78;;;6.77;100.00
66547;BME280;53400;50.364;14.874;2023-03-21T02:32:59;98653.97;;;6.62;100.00
66547;BME280;53400;50.364;14.874;2023-03-21T02:35:53;98653.63;;;6.77;100.00
66547;BME280;53400;50.364;14.874;2023-03-21T02:38:26;98659.69;;;6.84;100.00
66547;BME280;53400;50.364;14.874;2023-03-21T02:41:02;98661.28;;;6.92;100.00
66547;BME280;53400;50.364;14.874;2023-03-21T02:43:30;98655.56;;;6.88;100.00
66547;BME280;53400;50.364;14.874;2023-03-21T02:46:03;98662.88;;;6.93;100.00
66547;BME280;53400;50.364;14.874;2023-03-21T02:48:33;98660.59;;;6.97;100.00
66547;BME280;53400;50.364;14.874;2023-03-21T02:51:01;98659.84;;;6.89;100.00
66547;BME280;53400;50.364;14.874;2023-03-21T02:53:33;98663.09;;;6.73;100.00
66547;BME280;53400;50.364;14.874;2023-03-21T02:56:02;98651.56;;;6.79;100.00
66547;BME280;53400;50.364;14.874;2023-03-21T02:58:31;98663.47;;;6.77;100.00
66547;BME280;53400;50.364;14.874;2023-03-21T03:00:57;98651.09;;;6.64;100.00
66547;BME280;53400;50.364;14.874;2023-03-21T03:03:23;98649.63;;;6.68;100.00
66547;BME280;53400;50.364;14.874;2023-03-21T03:05:51;98657.00;;;6.91;100.00
66547;BME280;53400;50.364;14.874;2023-03-21T03:08:26;98651.22;;;6.94;100.00
66547;BME280;53400;50.364;14.874;2023-03-21T03:11:08;98655.53;;;6.70;100.00
66547;BME280;53400;50.364;14.874;2023-03-21T03:13:50;98661.28;;;6.92;100.00
66547;BME280;53400;50.364;14.874;2023-03-21T03:16:25;98658.41;;;6.69;100.00
66547;BME280;53400;50.364;14.874;2023-03-21T03:18:55;98663.28;;;6.72;100.00
66547;BME280;53400;50.364;14.874;2023-03-21T03:21:26;98661.53;;;6.84;100.00
66547;BME280;53400;50.364;14.874;2023-03-21T03:23:56;98657.50;;;7.00;100.00
66547;BME280;53400;50.364;14.874;2023-03-21T03:26:29;98658.53;;;6.99;100.00
66547;BME280;53400;50.364;14.874;2023-03-21T03:29:00;98660.69;;;7.08;100.00
66547;BME280;53400;50.364;14.874;2023-03-21T03:31:32;98656.56;;;7.31;100.00
66547;BME280;53400;50.364;14.874;2023-03-21T03:34:00;98660.16;;;7.00;100.00
66547;BME280;53400;50.364;14.874;2023-03-21T03:36:30;98651.66;;;6.91;100.00
66547;BME280;53400;50.364;14.874;2023-03-21T03:39:02;98655.81;;;7.24;100.00
66547;BME280;53400;50.364;14.874;2023-03-21T03:41:32;98650.56;;;7.17;100.00
66547;BME280;53400;50.364;14.874;2023-03-21T03:44:01;98657.44;;;7.06;100.00
66547;BME280;53400;50.364;14.874;2023-03-21T03:46:30;98659.66;;;6.66;100.00
66547;BME280;53400;50.364;14.874;2023-03-21T03:49:01;98658.59;;;6.92;100.00
66547;BME280;53400;50.364;14.874;2023-03-21T03:51:32;98657.94;;;6.97;100.00
66547;BME280;53400;50.364;14.874;2023-03-21T03:54:03;98659.19;;;6.76;100.00
66547;BME280;53400;50.364;14.874;2023-03-21T03:56:32;98659.94;;;7.01;100.00
66547;BME280;53400;50.364;14.874;2023-03-21T03:59:01;98657.91;;;6.78;100.00
66547;BME280;53400;50.364;14.874;2023-03-21T04:01:28;98647.84;;;6.62;100.00
66547;BME280;53400;50.364;14.874;2023-03-21T04:03:55;98648.63;;;6.62;100.00
66547;BME280;53400;50.364;14.874;2023-03-21T04:06:20;98654.44;;;6.78;100.00
66547;BME280;53400;50.364;14.874;2023-03-21T04:08:46;98655.97;;;7.10;100.00
66547;BME280;53400;50.364;14.874;2023-03-21T04:11:13;98657.25;;;6.83;100.00
66547;BME280;53400;50.364;14.874;2023-03-21T04:13:42;98657.25;;;6.83;100.00
66547;BME280;53400;50.364;14.874;2023-03-21T04:16:09;98667.56;;;6.98;100.00
66547;BME280;53400;50.364;14.874;2023-03-21T04:18:36;98665.09;;;6.78;100.00
66547;BME280;53400;50.364;14.874;2023-03-21T04:21:07;98670.47;;;6.71;100.00
66547;BME280;53400;50.364;14.874;2023-03-21T04:23:33;98665.31;;;6.76;100.00
66547;BME280;53400;50.364;14.874;2023-03-21T04:26:00;98666.66;;;6.85;100.00
66547;BME280;53400;50.364;14.874;2023-03-21T04:28:26;98658.16;;;6.95;100.00
66547;BME280;53400;50.364;14.874;2023-03-21T04:30:53;98663.63;;;6.82;100.00
66547;BME280;53400;50.364;14.874;2023-03-21T04:33:22;98663.03;;;6.80;100.00
66547;BME280;53400;50.364;14.874;2023-03-21T04:35:50;98663.38;;;6.65;100.00
66547;BME280;53400;50.364;14.874;2023-03-21T04:38:21;98655.47;;;6.77;100.00
66547;BME280;53400;50.364;14.874;2023-03-21T04:40:46;98661.91;;;6.87;100.00
66547;BME280;53400;50.364;14.874;2023-03-21T04:43:12;98652.84;;;6.95;100.00
66547;BME280;53400;50.364;14.874;2023-03-21T04:45:38;98660.63;;;7.33;100.00
66547;BME280;53400;50.364;14.874;2023-03-21T04:48:05;98664.56;;;7.31;100.00
66547;BME280;53400;50.364;14.874;2023-03-21T04:50:31;98660.00;;;6.76;100.00
66547;BME280;53400;50.364;14.874;2023-03-21T04:52:57;98656.59;;;6.87;100.00
66547;BME280;53400;50.364;14.874;2023-03-21T04:55:23;98660.56;;;6.78;100.00
66547;BME280;53400;50.364;14.874;2023-03-21T04:57:54;98661.28;;;6.92;100.00
66547;BME280;53400;50.364;14.874;2023-03-21T05:00:20;98664.94;;;6.73;100.00
66547;BME280;53400;50.364;14.874;2023-03-21T05:02:46;98660.66;;;6.47;100.00
66547;BME280;53400;50.364;14.874;2023-03-21T05:05:13;98660.84;;;6.45;100.00
66547;BME280;53400;50.364;14.874;2023-03-21T05:07:40;98660.91;;;6.38;100.00
66547;BME280;53400;50.364;14.874;2023-03-21T05:10:09;98664.78;;;6.42;100.00
66547;BME280;53400;50.364;14.874;2023-03-21T05:12:36;98656.81;;;6.42;100.00
66547;BME280;53400;50.364;14.874;2023-03-21T05:15:03;98659.63;;;6.48;100.00
66547;BME280;53400;50.364;14.874;2023-03-21T05:17:30;98654.09;;;6.49;100.00
66547;BME280;53400;50.364;14.874;2023-03-21T05:19:56;98657.22;;;6.64;100.00
66547;BME280;53400;50.364;14.874;2023-03-21T05:22:24;98656.53;;;6.51;100.00
66547;BME280;53400;50.364;14.874;2023-03-21T05:24:52;98659.34;;;6.56;100.00
66547;BME280;53400;50.364;14.874;2023-03-21T05:27:20;98667.44;;;6.68;100.00
66547;BME280;53400;50.364;14.874;2023-03-21T05:29:59;98666.06;;;6.83;100.00
66547;BME280;53400;50.364;14.874;2023-03-21T05:32:25;98671.56;;;6.63;100.00
66547;BME280;53400;50.364;14.874;2023-03-21T05:34:51;98668.75;;;6.58;100.00
66547;BME280;53400;50.364;14.874;2023-03-21T05:37:17;98670.59;;;6.58;100.00
66547;BME280;53400;50.364;14.874;2023-03-21T05:39:44;98667.38;;;6.49;100.00
66547;BME280;53400;50.364;14.874;2023-03-21T05:42:10;98682.97;;;6.46;100.00
66547;BME280;53400;50.364;14.874;2023-03-21T05:44:36;98667.16;;;6.51;100.00
66547;BME280;53400;50.364;14.874;2023-03-21T05:47:05;98676.00;;;6.44;100.00
66547;BME280;53400;50.364;14.874;2023-03-21T05:49:31;98680.19;;;6.59;100.00
66547;BME280;53400;50.364;14.874;2023-03-21T05:51:57;98674.63;;;6.67;100.00
66547;BME280;53400;50.364;14.874;2023-03-21T05:54:23;98672.94;;;6.73;100.00
66547;BME280;53400;50.364;14.874;2023-03-21T05:56:50;98676.28;;;7.05;100.00
66547;BME280;53400;50.364;14.874;2023-03-21T05:59:18;98682.59;;;7.29;100.00
66547;BME280;53400;50.364;14.874;2023-03-21T06:01:44;98676.28;;;7.60;100.00
66547;BME280;53400;50.364;14.874;2023-03-21T06:04:10;98680.81;;;7.90;100.00
66547;BME280;53400;50.364;14.874;2023-03-21T06:06:36;98680.34;;;8.23;100.00
66547;BME280;53400;50.364;14.874;2023-03-21T06:09:01;98690.81;;;8.36;100.00
66547;BME280;53400;50.364;14.874;2023-03-21T06:11:29;98679.97;;;8.08;100.00
66547;BME280;53400;50.364;14.874;2023-03-21T06:13:57;98688.63;;;8.03;100.00
66547;BME280;53400;50.364;14.874;2023-03-21T06:16:23;98687.72;;;7.97;100.00
66547;BME280;53400;50.364;14.874;2023-03-21T06:18:49;98689.25;;;8.47;100.00
66547;BME280;53400;50.364;14.874;2023-03-21T06:21:17;98692.75;;;7.87;100.00
66547;BME280;53400;50.364;14.874;2023-03-21T06:23:44;98687.88;;;8.14;100.00
66547;BME280;53400;50.364;14.874;2023-03-21T06:26:11;98691.13;;;8.16;100.00
66547;BME280;53400;50.364;14.874;2023-03-21T06:28:37;98686.81;;;8.15;100.00
66547;BME280;53400;50.364;14.874;2023-03-21T06:31:05;98694.16;;;8.20;100.00
66547;BME280;53400;50.364;14.874;2023-03-21T06:33:31;98690.09;;;8.17;100.00
66547;BME280;53400;50.364;14.874;2023-03-21T06:35:58;98696.09;;;8.43;100.00
66547;BME280;53400;50.364;14.874;2023-03-21T06:38:27;98701.69;;;8.53;100.00
66547;BME280;53400;50.364;14.874;2023-03-21T06:40:53;98699.81;;;8.54;100.00
66547;BME280;53400;50.364;14.874;2023-03-21T06:43:19;98706.69;;;8.49;100.00
66547;BME280;53400;50.364;14.874;2023-03-21T06:45:45;98707.63;;;8.55;100.00
66547;BME280;53400;50.364;14.874;2023-03-21T06:48:12;98703.16;;;8.49;100.00
66547;BME280;53400;50.364;14.874;2023-03-21T06:50:38;98702.31;;;8.37;100.00
66547;BME280;53400;50.364;14.874;2023-03-21T06:53:05;98710.56;;;8.35;100.00
66547;BME280;53400;50.364;14.874;2023-03-21T06:55:31;98711.16;;;8.07;100.00
66547;BME280;53400;50.364;14.874;2023-03-21T06:57:57;98710.47;;;8.12;100.00
66547;BME280;53400;50.364;14.874;2023-03-21T07:00:23;98714.09;;;8.17;100.00
66547;BME280;53400;50.364;14.874;2023-03-21T07:02:49;98715.25;;;8.10;100.00
66547;BME280;53400;50.364;14.874;2023-03-21T07:05:17;98724.50;;;8.07;100.00
66547;BME280;53400;50.364;14.874;2023-03-21T07:07:43;98721.53;;;8.27;100.00
66547;BME280;53400;50.364;14.874;2023-03-21T07:10:10;98716.16;;;8.15;100.00
66547;BME280;53400;50.364;14.874;2023-03-21T07:12:36;98729.91;;;8.31;100.00
66547;BME280;53400;50.364;14.874;2023-03-21T07:15:02;98717.00;;;8.16;100.00
66547;BME280;53400;50.364;14.874;2023-03-21T07:17:29;98728.25;;;8.48;100.00
66547;BME280;53400;50.364;14.874;2023-03-21T07:19:55;98724.00;;;8.59;100.00
66547;BME280;53400;50.364;14.874;2023-03-21T07:22:22;98717.47;;;8.55;100.00
66547;BME280;53400;50.364;14.874;2023-03-21T07:24:48;98723.66;;;8.79;100.00
66547;BME280;53400;50.364;14.874;2023-03-21T07:27:15;98721.31;;;8.82;100.00
66547;BME280;53400;50.364;14.874;2023-03-21T07:29:41;98725.06;;;8.93;100.00
66547;BME280;53400;50.364;14.874;2023-03-21T07:32:08;98719.38;;;9.01;100.00
66547;BME280;53400;50.364;14.874;2023-03-21T07:34:35;98732.03;;;9.29;100.00
66547;BME280;53400;50.364;14.874;2023-03-21T07:37:01;98728.56;;;9.17;100.00
66547;BME280;53400;50.364;14.874;2023-03-21T07:39:28;98730.75;;;9.32;97.33
66547;BME280;53400;50.364;14.874;2023-03-21T07:41:54;98729.72;;;9.33;96.00
66547;BME280;53400;50.364;14.874;2023-03-21T07:44:21;98738.72;;;9.67;95.13
66547;BME280;53400;50.364;14.874;2023-03-21T07:46:47;98734.38;;;9.90;93.18
66547;BME280;53400;50.364;14.874;2023-03-21T07:49:13;98735.84;;;9.97;92.75
66547;BME280;53400;50.364;14.874;2023-03-21T07:51:39;98728.34;;;10.11;91.83
66547;BME280;53400;50.364;14.874;2023-03-21T07:54:05;98730.00;;;10.00;91.72
66547;BME280;53400;50.364;14.874;2023-03-21T07:56:33;98738.09;;;10.29;87.81
66547;BME280;53400;50.364;14.874;2023-03-21T07:58:59;98727.94;;;10.19;88.26
66547;BME280;53400;50.364;14.874;2023-03-21T08:01:25;98728.31;;;10.23;88.73
66547;BME280;53400;50.364;14.874;2023-03-21T08:03:51;98730.75;;;10.53;87.97
66547;BME280;53400;50.364;14.874;2023-03-21T08:06:18;98736.69;;;10.72;88.65
66547;BME280;53400;50.364;14.874;2023-03-21T08:08:44;98733.19;;;10.88;87.50
66547;BME280;53400;50.364;14.874;2023-03-21T08:11:10;98727.84;;;10.71;86.89
66547;BME280;53400;50.364;14.874;2023-03-21T08:13:38;98737.00;;;10.75;88.90
66547;BME280;53400;50.364;14.874;2023-03-21T08:16:05;98746.09;;;10.91;87.60
66547;BME280;53400;50.364;14.874;2023-03-21T08:18:31;98748.78;;;10.91;87.73
66547;BME280;53400;50.364;14.874;2023-03-21T08:20:58;98742.94;;;10.77;87.37
66547;BME280;53400;50.364;14.874;2023-03-21T08:23:25;98747.78;;;10.97;85.95
66547;BME280;53400;50.364;14.874;2023-03-21T08:25:51;98747.16;;;10.90;89.49
66547;BME280;53400;50.364;14.874;2023-03-21T08:28:18;98745.03;;;11.26;86.93
66547;BME280;53400;50.364;14.874;2023-03-21T08:30:46;98743.41;;;11.47;83.50
66547;BME280;53400;50.364;14.874;2023-03-21T08:33:12;98746.44;;;11.51;83.42
66547;BME280;53400;50.364;14.874;2023-03-21T08:35:38;98746.31;;;11.84;78.85
66547;BME280;53400;50.364;14.874;2023-03-21T08:38:04;98740.78;;;11.91;79.11
66547;BME280;53400;50.364;14.874;2023-03-21T08:40:30;98737.47;;;12.06;78.29
66547;BME280;53400;50.364;14.874;2023-03-21T08:42:57;98737.34;;;11.96;78.94
66547;BME280;53400;50.364;14.874;2023-03-21T08:45:24;98739.19;;;12.17;78.23
66547;BME280;53400;50.364;14.874;2023-03-21T08:47:53;98735.53;;;12.01;76.55
66547;BME280;53400;50.364;14.874;2023-03-21T08:50:20;98733.91;;;11.78;79.04
66547;BME280;53400;50.364;14.874;2023-03-21T08:52:47;98736.69;;;12.05;77.94
66547;BME280;53400;50.364;14.874;2023-03-21T08:55:14;98736.06;;;12.25;77.05
66547;BME280;53400;50.364;14.874;2023-03-21T08:57:41;98740.03;;;12.45;75.82
66547;BME280;53400;50.364;14.874;2023-03-21T09:00:09;98742.00;;;12.54;74.83
66547;BME280;53400;50.364;14.874;2023-03-21T09:02:38;98735.63;;;12.33;76.97
66547;BME280;53400;50.364;14.874;2023-03-21T09:05:07;98740.44;;;12.31;74.63
66547;BME280;53400;50.364;14.874;2023-03-21T09:07:33;98742.28;;;11.82;80.73
66547;BME280;53400;50.364;14.874;2023-03-21T09:10:01;98734.72;;;12.01;77.10
66547;BME280;53400;50.364;14.874;2023-03-21T09:12:27;98735.34;;;11.64;79.45
66547;BME280;53400;50.364;14.874;2023-03-21T09:14:52;98732.72;;;11.69;79.83
66547;BME280;53400;50.364;14.874;2023-03-21T09:17:19;98729.25;;;11.90;79.15
66547;BME280;53400;50.364;14.874;2023-03-21T09:19:45;98733.84;;;12.44;75.06
66547;BME280;53400;50.364;14.874;2023-03-21T09:22:13;98728.94;;;12.68;70.83
66547;BME280;53400;50.364;14.874;2023-03-21T09:24:42;98727.38;;;12.72;74.45
66547;BME280;53400;50.364;14.874;2023-03-21T09:27:08;98725.00;;;12.76;75.24
66547;BME280;53400;50.364;14.874;2023-03-21T09:29:34;98733.97;;;12.59;73.51
66547;BME280;53400;50.364;14.874;2023-03-21T09:32:00;98727.03;;;12.63;70.71
66547;BME280;53400;50.364;14.874;2023-03-21T09:34:26;98727.09;;;13.06;69.85
66547;BME280;53400;50.364;14.874;2023-03-21T09:36:53;98725.44;;;13.00;72.89
66547;BME280;53400;50.364;14.874;2023-03-21T09:39:22;98722.94;;;12.88;73.94
66547;BME280;53400;50.364;14.874;2023-03-21T09:42:16;98722.88;;;12.83;72.13
66547;BME280;53400;50.364;14.874;2023-03-21T09:44:55;98726.25;;;13.00;75.54
66547;BME280;53400;50.364;14.874;2023-03-21T09:47:24;98729.56;;;13.13;70.78
66547;BME280;53400;50.364;14.874;2023-03-21T09:49:56;98729.84;;;13.59;66.50
66547;BME280;53400;50.364;14.874;2023-03-21T09:52:26;98739.38;;;13.29;69.07
66547;BME280;53400;50.364;14.874;2023-03-21T09:54:56;98731.69;;;13.48;68.10
66547;BME280;53400;50.364;14.874;2023-03-21T09:57:29;98725.16;;;13.91;65.98
66547;BME280;53400;50.364;14.874;2023-03-21T09:59:58;98728.84;;;13.75;65.93
66547;BME280;53400;50.364;14.874;2023-03-21T10:02:36;98728.09;;;13.85;67.53
66547;BME280;53400;50.364;14.874;2023-03-21T10:05:10;98727.69;;;14.34;65.16
66547;BME280;53400;50.364;14.874;2023-03-21T10:07:40;98717.97;;;14.12;69.44
66547;BME280;53400;50.364;14.874;2023-03-21T10:10:14;98720.13;;;14.36;65.47
66547;BME280;53400;50.364;14.874;2023-03-21T10:12:42;98718.25;;;14.41;66.03
66547;BME280;53400;50.364;14.874;2023-03-21T10:15:10;98713.25;;;13.77;65.16
66547;BME280;53400;50.364;14.874;2023-03-21T10:17:42;98714.91;;;13.93;64.70
66547;BME280;53400;50.364;14.874;2023-03-21T10:20:15;98716.84;;;14.03;63.92
66547;BME280;53400;50.364;14.874;2023-03-21T10:22:42;98712.66;;;13.65;65.57
66547;BME280;53400;50.364;14.874;2023-03-21T10:25:15;98712.75;;;13.90;67.91
66547;BME280;53400;50.364;14.874;2023-03-21T10:27:42;98712.66;;;13.65;68.17
66547;BME280;53400;50.364;14.874;2023-03-21T10:30:10;98708.38;;;13.21;70.33
66547;BME280;53400;50.364;14.874;2023-03-21T10:32:43;98705.72;;;12.89;70.58
66547;BME280;53400;50.364;14.874;2023-03-21T10:35:12;98717.25;;;13.22;69.91
66547;BME280;53400;50.364;14.874;2023-03-21T10:37:38;98709.38;;;13.10;70.61
66547;BME280;53400;50.364;14.874;2023-03-21T10:40:09;98712.53;;;12.65;70.42
66547;BME280;53400;50.364;14.874;2023-03-21T10:42:42;98708.94;;;12.86;71.50
66547;BME280;53400;50.364;14.874;2023-03-21T10:45:14;98714.47;;;13.06;70.30
66547;BME280;53400;50.364;14.874;2023-03-21T10:47:41;98709.94;;;13.17;68.54
66547;BME280;53400;50.364;14.874;2023-03-21T10:50:11;98700.97;;;13.39;67.45
66547;BME280;53400;50.364;14.874;2023-03-21T10:52:42;98707.06;;;13.76;66.20
66547;BME280;53400;50.364;14.874;2023-03-21T10:55:17;98704.13;;;13.83;66.21
66547;BME280;53400;50.364;14.874;2023-03-21T10:57:48;98702.97;;;13.64;67.18
66547;BME280;53400;50.364;14.874;2023-03-21T11:00:19;98704.41;;;13.87;63.14
66547;BME280;53400;50.364;14.874;2023-03-21T11:02:48;98702.81;;;13.91;64.73
66547;BME280;53400;50.364;14.874;2023-03-21T11:05:20;98704.50;;;14.12;62.78
66547;BME280;53400;50.364;14.874;2023-03-21T11:07:47;98696.94;;;14.09;62.85
66547;BME280;53400;50.364;14.874;2023-03-21T11:10:27;98697.41;;;13.28;66.30
66547;BME280;53400;50.364;14.874;2023-03-21T11:12:58;98692.47;;;13.62;65.96
66547;BME280;53400;50.364;14.874;2023-03-21T11:15:29;98693.34;;;13.78;65.50
66547;BME280;53400;50.364;14.874;2023-03-21T11:17:55;98695.75;;;13.74;64.72
66547;BME280;53400;50.364;14.874;2023-03-21T11:20:22;98687.19;;;13.88;66.00
66547;BME280;53400;50.364;14.874;2023-03-21T11:22:48;98688.06;;;14.14;64.32
66547;BME280;53400;50.364;14.874;2023-03-21T11:25:20;98683.47;;;14.14;62.20
66547;BME280;53400;50.364;14.874;2023-03-21T11:27:49;98678.53;;;13.75;63.24
66547;BME280;53400;50.364;14.874;2023-03-21T11:30:21;98681.84;;;14.08;64.03
66547;BME280;53400;50.364;14.874;2023-03-21T11:32:52;98686.75;;;14.32;62.44
66547;BME280;53400;50.364;14.874;2023-03-21T11:35:20;98676.41;;;13.93;65.71
66547;BME280;53400;50.364;14.874;2023-03-21T11:37:50;98679.16;;;14.08;68.34
66547;BME280;53400;50.364;14.874;2023-03-21T11:40:21;98673.72;;;13.93;67.18
66547;BME280;53400;50.364;14.874;2023-03-21T11:42:51;98676.97;;;13.85;66.85
66547;BME280;53400;50.364;14.874;2023-03-21T11:45:22;98674.00;;;13.91;66.50
66547;BME280;53400;50.364;14.874;2023-03-21T11:47:49;98668.69;;;14.48;68.33
66547;BME280;53400;50.364;14.874;2023-03-21T11:50:19;98670.63;;;14.62;64.03
66547;BME280;53400;50.364;14.874;2023-03-21T11:52:57;98674.66;;;14.65;63.03
66547;BME280;53400;50.364;14.874;2023-03-21T11:55:33;98669.53;;;14.53;62.13
66547;BME280;53400;50.364;14.874;2023-03-21T11:58:12;98664.66;;;14.45;64.14
66547;BME280;53400;50.364;14.874;2023-03-21T12:00:47;98663.31;;;14.48;63.45
66547;BME280;53400;50.364;14.874;2023-03-21T12:03:29;98654.72;;;14.56;64.47
66547;BME280;53400;50.364;14.874;2023-03-21T12:06:12;98657.94;;;14.83;61.71
66547;BME280;53400;50.364;14.874;2023-03-21T12:08:49;98647.13;;;14.48;63.98
66547;BME280;53400;50.364;14.874;2023-03-21T12:11:24;98646.59;;;14.86;62.09
66547;BME280;53400;50.364;14.874;2023-03-21T12:14:02;98638.25;;;14.42;61.87
66547;BME280;53400;50.364;14.874;2023-03-21T12:16:40;98626.59;;;13.90;63.75
66547;BME280;53400;50.364;14.874;2023-03-21T12:19:17;98630.94;;;14.02;64.42
66547;BME280;53400;50.364;14.874;2023-03-21T12:21:52;98621.72;;;13.67;65.85
66547;BME280;53400;50.364;14.874;2023-03-21T12:24:26;98617.84;;;13.37;66.69
66547;BME280;53400;50.364;14.874;2023-03-21T12:27:04;98620.66;;;13.78;64.85
66547;BME280;53400;50.364;14.874;2023-03-21T12:29:48;98609.81;;;13.42;66.40
66547;BME280;53400;50.364;14.874;2023-03-21T12:32:40;98603.47;;;13.89;65.70
66547;BME280;53400;50.364;14.874;2023-03-21T12:35:21;98600.75;;;13.89;67.84
66547;BME280;53400;50.364;14.874;2023-03-21T12:37:58;98610.75;;;14.35;65.49
66547;BME280;53400;50.364;14.874;2023-03-21T12:40:38;98605.38;;;14.50;64.07
66547;BME280;53400;50.364;14.874;2023-03-21T12:43:32;98598.66;;;14.07;63.01
66547;BME280;53400;50.364;14.874;2023-03-21T12:46:04;98599.97;;;13.94;66.01
66547;BME280;53400;50.364;14.874;2023-03-21T12:48:39;98598.66;;;14.22;63.26
66547;BME280;53400;50.364;14.874;2023-03-21T12:51:10;98594.88;;;13.97;64.73
66547;BME280;53400;50.364;14.874;2023-03-21T12:53:54;98590.41;;;13.30;66.47
66547;BME280;53400;50.364;14.874;2023-03-21T12:56:26;98588.59;;;13.66;65.46
66547;BME280;53400;50.364;14.874;2023-03-21T12:58:56;98588.84;;;13.49;68.00
66547;BME280;53400;50.364;14.874;2023-03-21T13:01:24;98578.72;;;13.97;66.38
66547;BME280;53400;50.364;14.874;2023-03-21T13:04:05;98583.28;;;14.43;65.22
66547;BME280;53400;50.364;14.874;2023-03-21T13:06:34;98576.00;;;14.79;63.44
66547;BME280;53400;50.364;14.874;2023-03-21T13:09:06;98575.41;;;14.93;64.09
66547;BME280;53400;50.364;14.874;2023-03-21T13:11:36;98575.84;;;15.20;64.02